createdAt,value
2023-05-27T00:00:21.283Z,9.89
2023-05-27T00:02:48.395Z,9.86
2023-05-27T00:05:15.021Z,9.79
2023-05-27T00:07:42.236Z,9.86
2023-05-27T00:10:09.082Z,9.74
2023-05-27T00:12:35.967Z,9.62
2023-05-27T00:15:02.667Z,9.56
2023-05-27T00:17:29.222Z,9.55
2023-05-27T00:19:56.122Z,9.38
2023-05-27T00:22:24.102Z,9.46
2023-05-27T00:24:50.868Z,9.43
2023-05-27T00:27:18.685Z,9.34
2023-05-27T00:29:45.534Z,9.32
2023-05-27T00:32:12.071Z,9.34
2023-05-27T00:34:38.644Z,9.11
2023-05-27T00:37:06.461Z,9.07
2023-05-27T00:39:33.240Z,9.04
2023-05-27T00:42:01.968Z,9.11
2023-05-27T00:44:29.115Z,8.95
2023-05-27T00:46:56.418Z,8.93
2023-05-27T00:49:26.443Z,8.93
2023-05-27T00:51:53.379Z,8.95
2023-05-27T00:54:20.272Z,8.90
2023-05-27T00:56:47.330Z,8.85
2023-05-27T00:59:13.913Z,8.85
2023-05-27T01:01:44.505Z,8.84
2023-05-27T01:04:13.896Z,8.74
2023-05-27T01:07:22.927Z,8.74
2023-05-27T01:10:01.248Z,8.61
2023-05-27T01:12:49.335Z,8.57
2023-05-27T01:15:16.051Z,8.58
2023-05-27T01:17:47.098Z,8.43
2023-05-27T01:20:15.742Z,8.48
2023-05-27T01:22:45.379Z,8.47
2023-05-27T01:25:12.010Z,8.52
2023-05-27T01:27:41.725Z,8.47
2023-05-27T01:30:09.557Z,8.37
2023-05-27T01:32:52.462Z,8.35
2023-05-27T01:35:41.165Z,8.21
2023-05-27T01:38:11.462Z,8.12
2023-05-27T01:40:40.922Z,8.13
2023-05-27T01:43:10.833Z,8.18
2023-05-27T01:45:37.582Z,8.16
2023-05-27T01:48:05.280Z,8.08
2023-05-27T01:50:32.651Z,8.03
2023-05-27T01:52:59.549Z,8.14
2023-05-27T01:55:26.735Z,8.03
2023-05-27T01:57:54.001Z,7.91
2023-05-27T02:00:21.343Z,7.88
2023-05-27T02:02:48.649Z,7.98
2023-05-27T02:05:15.488Z,8.05
2023-05-27T02:07:42.715Z,8.03
2023-05-27T02:10:11.039Z,8.00
2023-05-27T02:12:37.552Z,7.87
2023-05-27T02:15:04.487Z,7.83
2023-05-27T02:17:31.368Z,7.79
2023-05-27T02:19:58.104Z,7.71
2023-05-27T02:22:24.623Z,7.57
2023-05-27T02:24:51.327Z,7.58
2023-05-27T02:27:17.960Z,7.63
2023-05-27T02:29:44.670Z,7.62
2023-05-27T02:32:11.146Z,7.63
2023-05-27T02:34:38.713Z,7.59
2023-05-27T02:37:05.960Z,7.54
2023-05-27T02:39:32.743Z,7.62
2023-05-27T02:41:59.562Z,7.59
2023-05-27T02:44:26.154Z,7.61
2023-05-27T02:46:53.361Z,7.63
2023-05-27T02:49:20.546Z,7.50
2023-05-27T02:51:47.190Z,7.56
2023-05-27T02:54:14.033Z,7.39
2023-05-27T02:56:41.269Z,7.39
2023-05-27T02:59:08.017Z,7.29
2023-05-27T03:01:34.883Z,7.18
2023-05-27T03:04:01.746Z,7.24
2023-05-27T03:06:28.468Z,7.27
2023-05-27T03:08:55.414Z,7.26
2023-05-27T03:11:22.291Z,7.15
2023-05-27T03:13:48.862Z,7.24
2023-05-27T03:16:15.969Z,7.29
2023-05-27T03:18:42.833Z,7.22
2023-05-27T03:21:09.907Z,7.17
2023-05-27T03:23:37.043Z,7.04
2023-05-27T03:26:03.890Z,6.99
2023-05-27T03:28:31.262Z,7.06
2023-05-27T03:30:57.982Z,7.08
2023-05-27T03:33:25.004Z,7.06
2023-05-27T03:35:52.152Z,7.16
2023-05-27T03:38:18.918Z,7.13
2023-05-27T03:40:45.637Z,6.98
2023-05-27T03:43:12.428Z,6.95
2023-05-27T03:45:40.514Z,7.09
2023-05-27T03:48:07.339Z,7.00
2023-05-27T03:50:34.942Z,7.02
2023-05-27T03:53:01.500Z,7.04
2023-05-27T03:55:28.097Z,6.94
2023-05-27T03:57:54.680Z,6.95
2023-05-27T04:00:21.498Z,6.93
2023-05-27T04:02:49.434Z,6.91
2023-05-27T04:05:17.905Z,7.02
2023-05-27T04:07:45.780Z,7.19
2023-05-27T04:10:12.986Z,7.16
2023-05-27T04:12:41.259Z,7.21
2023-05-27T04:15:09.164Z,7.29
2023-05-27T04:17:36.534Z,7.19
2023-05-27T04:20:12.333Z,7.22
2023-05-27T04:22:40.315Z,7.46
2023-05-27T04:25:07.497Z,7.47
2023-05-27T04:27:34.843Z,7.54
2023-05-27T04:30:02.756Z,7.48
2023-05-27T04:32:29.632Z,7.57
2023-05-27T04:34:56.237Z,7.50
2023-05-27T04:37:23.761Z,7.62
2023-05-27T04:39:50.294Z,7.70
2023-05-27T04:42:17.092Z,7.58
2023-05-27T04:44:43.780Z,7.66
2023-05-27T04:47:11.100Z,7.69
2023-05-27T04:49:37.922Z,7.68
2023-05-27T04:52:08.009Z,7.59
2023-05-27T04:54:35.128Z,7.61
2023-05-27T04:57:01.629Z,7.72
2023-05-27T04:59:46.975Z,7.85
2023-05-27T05:02:22.614Z,7.97
2023-05-27T05:04:51.195Z,7.97
2023-05-27T05:07:20.434Z,7.94
2023-05-27T05:09:47.285Z,8.23
2023-05-27T05:12:13.880Z,8.12
2023-05-27T05:14:40.850Z,8.27
2023-05-27T05:17:07.448Z,8.52
2023-05-27T05:19:34.774Z,8.39
2023-05-27T05:22:01.312Z,8.16
2023-05-27T05:24:28.191Z,8.48
2023-05-27T05:26:54.814Z,8.64
2023-05-27T05:29:21.355Z,8.53
2023-05-27T05:31:48.087Z,8.61
2023-05-27T05:34:14.650Z,8.51
2023-05-27T05:36:41.429Z,8.54
2023-05-27T05:39:08.949Z,8.57
2023-05-27T05:41:35.830Z,8.80
2023-05-27T05:44:02.275Z,8.92
2023-05-27T05:46:29.024Z,8.46
2023-05-27T05:48:56.361Z,8.71
2023-05-27T05:51:24.237Z,9.03
2023-05-27T05:53:51.048Z,9.00
2023-05-27T05:56:17.629Z,9.08
2023-05-27T05:58:44.352Z,9.41
2023-05-27T06:01:12.017Z,9.48
2023-05-27T06:03:38.949Z,9.29
2023-05-27T06:06:05.816Z,9.28
2023-05-27T06:08:33.059Z,9.46
2023-05-27T06:10:59.861Z,9.66
2023-05-27T06:13:26.651Z,9.71
2023-05-27T06:15:53.561Z,9.87
2023-05-27T06:18:20.552Z,9.78
2023-05-27T06:20:47.699Z,9.83
2023-05-27T06:23:14.451Z,10.02
2023-05-27T06:25:41.075Z,9.93
2023-05-27T06:28:08.552Z,9.94
2023-05-27T06:30:35.033Z,9.96
2023-05-27T06:33:01.699Z,10.02
2023-05-27T06:35:28.515Z,10.13
2023-05-27T06:37:55.735Z,10.15
2023-05-27T06:40:23.681Z,10.34
2023-05-27T06:42:50.250Z,10.56
2023-05-27T06:45:16.920Z,10.75
2023-05-27T06:47:44.303Z,10.57
2023-05-27T06:50:11.339Z,10.86
2023-05-27T06:52:37.901Z,10.90
2023-05-27T06:55:04.891Z,10.93
2023-05-27T06:57:31.275Z,10.97
2023-05-27T06:59:57.946Z,11.07
2023-05-27T07:02:24.504Z,11.20
2023-05-27T07:04:51.251Z,11.20
2023-05-27T07:07:17.926Z,11.17
2023-05-27T07:09:44.389Z,11.33
2023-05-27T07:12:11.303Z,11.57
2023-05-27T07:14:37.964Z,11.68
2023-05-27T07:17:04.549Z,11.71
2023-05-27T07:19:31.351Z,11.84
2023-05-27T07:21:57.895Z,11.90
2023-05-27T07:24:24.385Z,11.89
2023-05-27T07:26:50.942Z,12.29
2023-05-27T07:29:17.845Z,13.14
2023-05-27T07:31:44.524Z,13.05
2023-05-27T07:34:11.190Z,13.16
2023-05-27T07:36:38.834Z,12.99
2023-05-27T07:39:05.313Z,12.95
2023-05-27T07:41:32.089Z,13.24
2023-05-27T07:43:58.536Z,13.27
2023-05-27T07:46:25.415Z,13.18
2023-05-27T07:48:52.016Z,13.11
2023-05-27T07:51:18.678Z,13.16
2023-05-27T07:53:46.338Z,13.42
2023-05-27T07:56:12.836Z,13.13
2023-05-27T07:58:41.201Z,13.24
2023-05-27T08:01:07.814Z,13.52
2023-05-27T08:03:34.499Z,13.77
2023-05-27T08:06:01.210Z,13.62
2023-05-27T08:08:27.792Z,13.59
2023-05-27T08:10:54.518Z,13.83
2023-05-27T08:13:21.256Z,13.79
2023-05-27T08:15:48.284Z,13.82
2023-05-27T08:18:15.277Z,14.20
2023-05-27T08:20:42.201Z,14.54
2023-05-27T08:23:09.824Z,14.57
2023-05-27T08:25:36.358Z,14.55
2023-05-27T08:28:03.149Z,14.46
2023-05-27T08:30:30.652Z,14.69
2023-05-27T08:32:58.752Z,14.76
2023-05-27T08:35:25.518Z,14.67
2023-05-27T08:37:52.347Z,14.69
2023-05-27T08:40:20.643Z,14.66
2023-05-27T08:42:50.497Z,14.69
2023-05-27T08:45:17.319Z,14.91
2023-05-27T08:47:43.938Z,15.25
2023-05-27T08:50:11.317Z,15.21
2023-05-27T08:52:55.878Z,15.34
2023-05-27T08:55:23.553Z,15.38
2023-05-27T08:57:58.692Z,15.37
2023-05-27T09:00:27.131Z,15.45
2023-05-27T09:03:00.231Z,15.55
2023-05-27T09:05:28.070Z,15.67
2023-05-27T09:07:55.146Z,15.89
2023-05-27T09:10:21.965Z,15.82
2023-05-27T09:12:51.385Z,15.98
2023-05-27T09:15:18.070Z,16.16
2023-05-27T09:17:46.412Z,16.29
2023-05-27T09:20:14.264Z,16.64
2023-05-27T09:22:42.368Z,16.75
2023-05-27T09:25:10.050Z,17.27
2023-05-27T09:27:38.009Z,17.23
2023-05-27T09:30:09.601Z,17.47
2023-05-27T09:32:37.062Z,17.41
2023-05-27T09:35:08.452Z,17.14
2023-05-27T09:37:35.862Z,17.25
2023-05-27T09:40:09.256Z,17.15
2023-05-27T09:42:54.620Z,17.50
2023-05-27T09:45:22.187Z,17.25
2023-05-27T09:47:50.866Z,17.44
2023-05-27T09:50:18.523Z,17.48
2023-05-27T09:52:54.240Z,17.86
2023-05-27T09:55:31.642Z,17.99
2023-05-27T09:57:58.603Z,17.98
2023-05-27T10:00:25.950Z,18.19
2023-05-27T10:02:52.702Z,18.42
2023-05-27T10:05:21.864Z,18.52
2023-05-27T10:08:08.658Z,18.71
2023-05-27T10:10:35.609Z,18.93
2023-05-27T10:13:03.184Z,18.99
2023-05-27T10:15:34.057Z,19.03
2023-05-27T10:18:07.313Z,20.13
2023-05-27T10:20:43.402Z,23.27
2023-05-27T10:23:14.488Z,23.97
2023-05-27T10:25:47.124Z,24.97
2023-05-27T10:28:24.535Z,26.73
2023-05-27T10:30:51.045Z,26.86
2023-05-27T10:33:30.137Z,28.46
2023-05-27T10:35:56.775Z,27.35
2023-05-27T10:38:23.468Z,29.64
2023-05-27T10:41:00.884Z,27.64
2023-05-27T10:43:34.335Z,30.80
2023-05-27T10:46:06.058Z,30.21
2023-05-27T10:48:34.457Z,31.47
2023-05-27T10:51:01.616Z,30.81
2023-05-27T10:53:30.474Z,28.84
2023-05-27T10:56:00.819Z,28.80
2023-05-27T10:58:28.528Z,27.23
2023-05-27T11:00:57.971Z,24.42
2023-05-27T11:03:28.942Z,23.54
2023-05-27T11:06:06.064Z,24.26
2023-05-27T11:08:34.501Z,24.27
2023-05-27T11:11:07.133Z,25.28
2023-05-27T11:13:40.629Z,25.15
2023-05-27T11:16:08.146Z,25.08
2023-05-27T11:18:40.164Z,25.42
2023-05-27T11:21:08.435Z,24.53
2023-05-27T11:23:36.186Z,24.81
2023-05-27T11:26:03.009Z,24.26
2023-05-27T11:28:30.025Z,25.06
2023-05-27T11:31:04.476Z,25.27
2023-05-27T11:33:37.552Z,24.99
2023-05-27T11:36:09.034Z,25.66
2023-05-27T11:38:54.343Z,25.01
2023-05-27T11:41:23.050Z,24.38
2023-05-27T11:43:55.933Z,24.25
2023-05-27T11:46:23.076Z,23.84
2023-05-27T11:48:50.684Z,24.48
2023-05-27T11:51:17.590Z,25.20
2023-05-27T11:53:47.977Z,25.78
2023-05-27T11:56:15.348Z,26.33
2023-05-27T11:58:42.905Z,25.41
2023-05-27T12:01:09.746Z,23.87
2023-05-27T12:03:36.600Z,24.42
2023-05-27T12:06:04.538Z,25.10
2023-05-27T12:08:31.583Z,24.15
2023-05-27T12:10:58.354Z,25.08
2023-05-27T12:13:25.040Z,24.04
2023-05-27T12:15:52.015Z,24.86
2023-05-27T12:18:19.320Z,25.29
2023-05-27T12:20:46.485Z,24.27
2023-05-27T12:23:13.220Z,24.39
2023-05-27T12:25:40.047Z,25.14
2023-05-27T12:28:10.977Z,24.71
2023-05-27T12:30:37.841Z,23.92
2023-05-27T12:33:06.086Z,24.27
2023-05-27T12:35:34.578Z,24.78
2023-05-27T12:38:01.846Z,25.07
2023-05-27T12:40:28.420Z,24.88
2023-05-27T12:42:54.966Z,25.29
2023-05-27T12:45:24.028Z,24.27
2023-05-27T12:47:50.926Z,24.39
2023-05-27T12:50:17.940Z,24.69
2023-05-27T12:52:48.863Z,24.00
2023-05-27T12:55:18.030Z,23.85
2023-05-27T12:57:46.343Z,23.90
2023-05-27T13:00:13.727Z,23.99
2023-05-27T13:02:40.275Z,23.97
2023-05-27T13:05:08.008Z,24.12
2023-05-27T13:07:35.170Z,24.22
2023-05-27T13:10:06.138Z,24.03
2023-05-27T13:12:35.124Z,24.40
2023-05-27T13:15:07.221Z,24.28
2023-05-27T13:17:34.046Z,25.37
2023-05-27T13:20:01.468Z,25.27
2023-05-27T13:22:28.282Z,24.93
2023-05-27T13:24:54.789Z,24.27
2023-05-27T13:27:21.639Z,24.70
2023-05-27T13:29:48.481Z,24.25
2023-05-27T13:32:15.619Z,24.72
2023-05-27T13:34:42.397Z,25.14
2023-05-27T13:37:11.159Z,25.40
2023-05-27T13:39:43.744Z,25.95
2023-05-27T13:42:11.380Z,25.91
2023-05-27T13:44:37.905Z,24.94
2023-05-27T13:47:04.540Z,25.54
2023-05-27T13:49:31.836Z,25.78
2023-05-27T13:51:58.308Z,25.95
2023-05-27T13:54:24.909Z,26.18
2023-05-27T13:56:51.596Z,26.13
2023-05-27T13:59:18.382Z,25.93
2023-05-27T14:01:45.010Z,24.86
2023-05-27T14:04:12.502Z,25.37
2023-05-27T14:06:39.118Z,25.04
2023-05-27T14:09:06.209Z,25.58
2023-05-27T14:11:32.948Z,25.00
2023-05-27T14:14:00.193Z,25.26
2023-05-27T14:16:27.254Z,26.01
2023-05-27T14:18:54.015Z,25.48
2023-05-27T14:21:20.665Z,25.85
2023-05-27T14:23:47.394Z,25.95
2023-05-27T14:26:14.346Z,26.21
2023-05-27T14:28:41.155Z,26.05
2023-05-27T14:31:07.771Z,24.92
2023-05-27T14:33:34.460Z,24.80
2023-05-27T14:36:01.174Z,24.89
2023-05-27T14:38:27.971Z,25.59
2023-05-27T14:40:54.323Z,26.05
2023-05-27T14:43:20.943Z,25.92
2023-05-27T14:45:47.785Z,26.07
2023-05-27T14:48:14.383Z,25.73
2023-05-27T14:50:41.228Z,26.20
2023-05-27T14:53:07.876Z,25.48
2023-05-27T14:55:36.691Z,25.59
2023-05-27T14:58:06.865Z,26.19
2023-05-27T15:00:33.712Z,26.58
2023-05-27T15:03:00.857Z,26.51
2023-05-27T15:05:27.768Z,25.29
2023-05-27T15:07:54.287Z,25.47
2023-05-27T15:10:20.932Z,26.26
2023-05-27T15:12:48.458Z,26.09
2023-05-27T15:15:19.398Z,25.44
2023-05-27T15:17:46.988Z,24.88
2023-05-27T15:20:15.725Z,24.93
2023-05-27T15:22:43.170Z,25.66
2023-05-27T15:25:10.041Z,25.91
2023-05-27T15:27:36.713Z,26.09
2023-05-27T15:30:07.265Z,26.25
2023-05-27T15:32:34.141Z,26.27
2023-05-27T15:35:04.795Z,24.83
2023-05-27T15:37:32.336Z,24.84
2023-05-27T15:39:58.959Z,25.18
2023-05-27T15:42:26.309Z,25.66
2023-05-27T15:44:52.983Z,25.03
2023-05-27T15:47:19.607Z,25.29
2023-05-27T15:49:46.214Z,25.31
2023-05-27T15:52:13.837Z,25.47
2023-05-27T15:54:41.379Z,25.66
2023-05-27T15:57:09.305Z,26.17
2023-05-27T15:59:37.154Z,26.29
2023-05-27T16:02:05.104Z,25.77
2023-05-27T16:04:32.540Z,25.79
2023-05-27T16:06:59.342Z,25.82
2023-05-27T16:09:26.574Z,25.24
2023-05-27T16:11:54.077Z,25.35
2023-05-27T16:14:20.927Z,25.65
2023-05-27T16:16:47.944Z,24.88
2023-05-27T16:19:14.525Z,24.61
2023-05-27T16:21:43.076Z,24.80
2023-05-27T16:24:11.019Z,24.81
2023-05-27T16:26:37.658Z,25.25
2023-05-27T16:29:04.906Z,25.35
2023-05-27T16:31:31.884Z,25.25
2023-05-27T16:33:59.964Z,25.64
2023-05-27T16:36:27.332Z,25.55
2023-05-27T16:38:54.072Z,25.83
2023-05-27T16:41:21.504Z,25.28
2023-05-27T16:43:48.309Z,25.33
2023-05-27T16:46:14.913Z,25.09
2023-05-27T16:48:41.727Z,25.47
2023-05-27T16:51:08.719Z,25.67
2023-05-27T16:53:35.864Z,25.27
2023-05-27T16:56:03.689Z,25.36
2023-05-27T16:58:30.130Z,25.53
2023-05-27T17:00:59.311Z,25.90
2023-05-27T17:03:29.757Z,25.11
2023-05-27T17:05:57.864Z,25.10
2023-05-27T17:08:25.618Z,24.93
2023-05-27T17:10:52.686Z,25.09
2023-05-27T17:13:19.894Z,25.60
2023-05-27T17:15:47.120Z,25.67
2023-05-27T17:18:14.063Z,25.78
2023-05-27T17:20:40.860Z,25.30
2023-05-27T17:23:08.643Z,24.61
2023-05-27T17:25:36.152Z,25.09
2023-05-27T17:28:03.496Z,24.80
2023-05-27T17:30:31.375Z,24.46
2023-05-27T17:32:57.936Z,24.76
2023-05-27T17:35:24.494Z,24.56
2023-05-27T17:37:51.289Z,25.00
2023-05-27T17:40:18.172Z,24.35
2023-05-27T17:42:45.314Z,24.43
2023-05-27T17:45:12.256Z,24.51
2023-05-27T17:47:39.149Z,24.56
2023-05-27T17:50:06.346Z,24.35
2023-05-27T17:52:33.346Z,24.28
2023-05-27T17:55:00.040Z,24.03
2023-05-27T17:57:26.656Z,23.76
2023-05-27T17:59:53.348Z,23.71
2023-05-27T18:02:20.089Z,23.48
2023-05-27T18:04:47.133Z,23.43
2023-05-27T18:07:13.701Z,23.22
2023-05-27T18:09:40.768Z,23.04
2023-05-27T18:12:07.984Z,23.01
2023-05-27T18:14:35.790Z,22.86
2023-05-27T18:17:06.888Z,22.67
2023-05-27T18:19:34.521Z,22.44
2023-05-27T18:22:01.262Z,22.54
2023-05-27T18:24:27.880Z,22.38
2023-05-27T18:26:54.800Z,22.12
2023-05-27T18:29:21.520Z,21.85
2023-05-27T18:31:48.644Z,21.79
2023-05-27T18:34:16.490Z,21.79
2023-05-27T18:36:43.144Z,21.46
2023-05-27T18:39:09.721Z,21.11
2023-05-27T18:41:36.508Z,20.91
2023-05-27T18:44:04.026Z,21.03
2023-05-27T18:46:30.962Z,20.95
2023-05-27T18:48:57.948Z,20.58
2023-05-27T18:51:25.785Z,20.13
2023-05-27T18:53:52.844Z,19.99
2023-05-27T18:56:21.937Z,19.68
2023-05-27T18:58:48.567Z,19.57
2023-05-27T19:01:15.253Z,19.68
2023-05-27T19:03:42.000Z,19.71
2023-05-27T19:06:08.851Z,19.47
2023-05-27T19:08:35.289Z,19.26
2023-05-27T19:11:02.115Z,18.88
2023-05-27T19:13:29.063Z,18.60
2023-05-27T19:15:55.635Z,18.33
2023-05-27T19:18:22.170Z,18.12
2023-05-27T19:20:48.911Z,18.02
2023-05-27T19:23:15.354Z,17.77
2023-05-27T19:25:42.262Z,17.61
2023-05-27T19:28:08.800Z,17.52
2023-05-27T19:30:35.242Z,17.41
2023-05-27T19:33:02.075Z,17.26
2023-05-27T19:35:28.754Z,17.09
2023-05-27T19:37:55.592Z,16.91
2023-05-27T19:40:22.522Z,16.80
2023-05-27T19:42:49.346Z,16.70
2023-05-27T19:45:16.333Z,16.64
2023-05-27T19:47:44.342Z,16.53
2023-05-27T19:50:11.593Z,16.44
2023-05-27T19:52:39.241Z,16.31
2023-05-27T19:55:06.929Z,16.29
2023-05-27T19:57:34.050Z,16.28
2023-05-27T20:00:00.696Z,16.15
2023-05-27T20:02:27.333Z,16.11
2023-05-27T20:04:54.326Z,15.97
2023-05-27T20:07:21.111Z,15.89
2023-05-27T20:09:48.169Z,15.80
2023-05-27T20:12:14.938Z,15.34
2023-05-27T20:14:41.848Z,15.26
2023-05-27T20:17:08.504Z,15.19
2023-05-27T20:19:34.972Z,15.11
2023-05-27T20:22:02.099Z,15.00
2023-05-27T20:24:28.653Z,14.90
2023-05-27T20:26:55.186Z,14.81
2023-05-27T20:29:21.804Z,14.67
2023-05-27T20:31:48.537Z,14.60
2023-05-27T20:34:15.190Z,14.65
2023-05-27T20:36:41.694Z,14.51
2023-05-27T20:39:08.297Z,14.39
2023-05-27T20:41:34.784Z,14.22
2023-05-27T20:44:01.779Z,14.15
2023-05-27T20:46:29.400Z,14.15
2023-05-27T20:48:56.712Z,14.17
2023-05-27T20:51:24.567Z,14.22
2023-05-27T20:53:52.562Z,14.02
2023-05-27T20:56:19.489Z,14.09
2023-05-27T20:58:47.057Z,14.01
2023-05-27T21:01:13.772Z,13.90
2023-05-27T21:03:40.611Z,13.78
2023-05-27T21:06:07.136Z,13.74
2023-05-27T21:08:34.412Z,13.64
2023-05-27T21:11:01.087Z,13.71
2023-05-27T21:13:27.548Z,13.63
2023-05-27T21:15:54.398Z,13.60
2023-05-27T21:18:21.631Z,13.45
2023-05-27T21:20:48.520Z,13.45
2023-05-27T21:23:15.212Z,13.49
2023-05-27T21:25:42.455Z,13.43
2023-05-27T21:28:09.179Z,13.33
2023-05-27T21:30:35.725Z,13.26
2023-05-27T21:33:02.688Z,13.09
2023-05-27T21:35:29.190Z,13.02
2023-05-27T21:37:56.172Z,12.91
2023-05-27T21:40:22.735Z,12.87
2023-05-27T21:42:49.434Z,12.78
2023-05-27T21:45:16.078Z,12.73
2023-05-27T21:47:42.949Z,12.70
2023-05-27T21:50:11.487Z,12.58
2023-05-27T21:52:38.628Z,12.56
2023-05-27T21:55:05.856Z,12.47
2023-05-27T21:57:32.458Z,12.40
2023-05-27T21:59:59.053Z,12.34
2023-05-27T22:02:25.836Z,12.25
2023-05-27T22:04:53.298Z,12.27
2023-05-27T22:07:20.353Z,12.34
2023-05-27T22:09:48.121Z,12.31
2023-05-27T22:12:15.638Z,12.24
2023-05-27T22:14:42.530Z,12.13
2023-05-27T22:17:09.153Z,12.17
2023-05-27T22:19:35.631Z,12.19
2023-05-27T22:22:02.428Z,12.20
2023-05-27T22:24:29.497Z,12.17
2023-05-27T22:26:56.165Z,12.10
2023-05-27T22:29:22.773Z,12.05
2023-05-27T22:31:49.433Z,11.92
2023-05-27T22:34:16.039Z,11.93
2023-05-27T22:36:42.687Z,11.87
2023-05-27T22:39:10.095Z,11.87
2023-05-27T22:41:37.076Z,11.87
2023-05-27T22:44:04.104Z,11.72
2023-05-27T22:46:31.816Z,11.69
2023-05-27T22:48:59.465Z,11.62
2023-05-27T22:51:26.485Z,11.56
2023-05-27T22:53:53.484Z,11.56
2023-05-27T22:56:20.945Z,11.54
2023-05-27T22:58:47.727Z,11.51
2023-05-27T23:01:14.369Z,11.51
2023-05-27T23:03:41.564Z,11.41
2023-05-27T23:06:08.503Z,11.51
2023-05-27T23:08:35.349Z,11.37
2023-05-27T23:11:03.595Z,11.25
2023-05-27T23:13:30.453Z,11.31
2023-05-27T23:15:58.558Z,11.18
2023-05-27T23:18:25.206Z,11.13
2023-05-27T23:20:51.807Z,11.21
2023-05-27T23:23:18.684Z,11.06
2023-05-27T23:25:45.250Z,11.23
2023-05-27T23:28:12.436Z,11.12
2023-05-27T23:30:38.997Z,11.11
2023-05-27T23:33:06.020Z,11.09
2023-05-27T23:35:32.683Z,11.07
2023-05-27T23:38:00.634Z,11.03
2023-05-27T23:40:27.461Z,11.01
2023-05-27T23:42:53.985Z,10.94
2023-05-27T23:45:20.853Z,10.94
2023-05-27T23:47:47.782Z,10.66
2023-05-27T23:50:14.396Z,10.75
2023-05-27T23:52:41.944Z,10.75
2023-05-27T23:55:09.486Z,10.71
2023-05-27T23:57:36.190Z,10.72
